sensor_id;sensor_type;location;lat;lon;timestamp;P1;durP1;ratioP1;P2;durP2;ratioP2
32250;SDS011;41295;48.518;9.206;2023-07-22T00:02:39;3.30;;;2.00;;
32250;SDS011;41295;48.518;9.206;2023-07-22T00:04:41;3.53;;;2.28;;
32250;SDS011;41295;48.518;9.206;2023-07-22T00:06:44;3.42;;;2.38;;
32250;SDS011;41295;48.518;9.206;2023-07-22T00:08:47;6.97;;;2.63;;
32250;SDS011;41295;48.518;9.206;2023-07-22T00:10:49;5.53;;;2.80;;
32250;SDS011;41295;48.518;9.206;2023-07-22T00:12:53;6.45;;;2.65;;
32250;SDS011;41295;48.518;9.206;2023-07-22T00:14:56;5.45;;;3.05;;
32250;SDS011;41295;48.518;9.206;2023-07-22T00:16:59;3.72;;;2.63;;
32250;SDS011;41295;48.518;9.206;2023-07-22T00:19:02;4.57;;;2.50;;
32250;SDS011;41295;48.518;9.206;2023-07-22T00:21:04;2.97;;;2.13;;
32250;SDS011;41295;48.518;9.206;2023-07-22T00:23:08;4.05;;;2.58;;
32250;SDS011;41295;48.518;9.206;2023-07-22T00:25:11;4.07;;;2.53;;
32250;SDS011;41295;48.518;9.206;2023-07-22T00:27:14;7.13;;;2.22;;
32250;SDS011;41295;48.518;9.206;2023-07-22T00:29:18;3.47;;;2.20;;
32250;SDS011;41295;48.518;9.206;2023-07-22T00:31:21;3.33;;;2.05;;
32250;SDS011;41295;48.518;9.206;2023-07-22T00:33:24;4.47;;;2.13;;
32250;SDS011;41295;48.518;9.206;2023-07-22T00:35:25;2.72;;;1.83;;
32250;SDS011;41295;48.518;9.206;2023-07-22T00:37:28;3.88;;;2.00;;
32250;SDS011;41295;48.518;9.206;2023-07-22T00:39:31;6.07;;;2.53;;
32250;SDS011;41295;48.518;9.206;2023-07-22T00:41:33;6.07;;;2.10;;
32250;SDS011;41295;48.518;9.206;2023-07-22T00:43:36;12.13;;;2.47;;
32250;SDS011;41295;48.518;9.206;2023-07-22T00:45:40;3.28;;;2.35;;
32250;SDS011;41295;48.518;9.206;2023-07-22T00:47:43;3.08;;;2.03;;
32250;SDS011;41295;48.518;9.206;2023-07-22T00:49:47;4.75;;;2.25;;
32250;SDS011;41295;48.518;9.206;2023-07-22T00:51:50;5.60;;;2.20;;
32250;SDS011;41295;48.518;9.206;2023-07-22T00:53:52;3.13;;;2.22;;
32250;SDS011;41295;48.518;9.206;2023-07-22T00:55:55;2.80;;;2.10;;
32250;SDS011;41295;48.518;9.206;2023-07-22T00:57:58;6.65;;;2.47;;
32250;SDS011;41295;48.518;9.206;2023-07-22T01:00:00;4.10;;;2.35;;
32250;SDS011;41295;48.518;9.206;2023-07-22T01:02:04;4.45;;;2.30;;
32250;SDS011;41295;48.518;9.206;2023-07-22T01:04:08;6.30;;;2.13;;
32250;SDS011;41295;48.518;9.206;2023-07-22T01:06:17;2.90;;;2.28;;
32250;SDS011;41295;48.518;9.206;2023-07-22T01:08:21;4.45;;;2.22;;
32250;SDS011;41295;48.518;9.206;2023-07-22T01:10:23;3.42;;;2.20;;
32250;SDS011;41295;48.518;9.206;2023-07-22T01:12:26;4.60;;;2.25;;
32250;SDS011;41295;48.518;9.206;2023-07-22T01:14:28;3.15;;;2.10;;
32250;SDS011;41295;48.518;9.206;2023-07-22T01:16:30;4.43;;;2.40;;
32250;SDS011;41295;48.518;9.206;2023-07-22T01:18:35;3.38;;;2.25;;
32250;SDS011;41295;48.518;9.206;2023-07-22T01:20:37;4.90;;;2.55;;
32250;SDS011;41295;48.518;9.206;2023-07-22T01:22:41;3.65;;;2.30;;
32250;SDS011;41295;48.518;9.206;2023-07-22T01:24:46;3.83;;;2.40;;
32250;SDS011;41295;48.518;9.206;2023-07-22T01:26:49;4.55;;;2.58;;
32250;SDS011;41295;48.518;9.206;2023-07-22T01:29:01;4.25;;;2.70;;
32250;SDS011;41295;48.518;9.206;2023-07-22T01:31:04;3.75;;;2.35;;
32250;SDS011;41295;48.518;9.206;2023-07-22T01:33:07;4.95;;;2.40;;
32250;SDS011;41295;48.518;9.206;2023-07-22T01:35:09;5.20;;;2.40;;
32250;SDS011;41295;48.518;9.206;2023-07-22T01:37:12;4.30;;;2.33;;
32250;SDS011;41295;48.518;9.206;2023-07-22T01:41:17;3.85;;;2.30;;
32250;SDS011;41295;48.518;9.206;2023-07-22T01:43:19;4.40;;;2.30;;
32250;SDS011;41295;48.518;9.206;2023-07-22T01:45:22;4.53;;;2.35;;
32250;SDS011;41295;48.518;9.206;2023-07-22T01:47:25;5.35;;;2.40;;
32250;SDS011;41295;48.518;9.206;2023-07-22T01:49:27;4.60;;;2.40;;
32250;SDS011;41295;48.518;9.206;2023-07-22T01:51:30;3.17;;;2.28;;
32250;SDS011;41295;48.518;9.206;2023-07-22T01:53:33;5.20;;;2.60;;
32250;SDS011;41295;48.518;9.206;2023-07-22T01:55:36;2.40;;;1.95;;
32250;SDS011;41295;48.518;9.206;2023-07-22T01:57:41;3.30;;;2.33;;
32250;SDS011;41295;48.518;9.206;2023-07-22T01:59:44;4.47;;;2.83;;
32250;SDS011;41295;48.518;9.206;2023-07-22T02:01:46;3.53;;;2.17;;
32250;SDS011;41295;48.518;9.206;2023-07-22T02:03:49;3.70;;;2.38;;
32250;SDS011;41295;48.518;9.206;2023-07-22T02:05:51;3.70;;;2.20;;
32250;SDS011;41295;48.518;9.206;2023-07-22T02:07:54;4.55;;;2.80;;
32250;SDS011;41295;48.518;9.206;2023-07-22T02:09:57;4.70;;;2.50;;
32250;SDS011;41295;48.518;9.206;2023-07-22T02:11:59;4.30;;;2.28;;
32250;SDS011;41295;48.518;9.206;2023-07-22T02:14:03;5.80;;;2.55;;
32250;SDS011;41295;48.518;9.206;2023-07-22T02:16:08;3.30;;;2.20;;
32250;SDS011;41295;48.518;9.206;2023-07-22T02:18:12;10.75;;;2.60;;
32250;SDS011;41295;48.518;9.206;2023-07-22T02:20:15;4.47;;;2.65;;
32250;SDS011;41295;48.518;9.206;2023-07-22T02:22:18;3.90;;;2.30;;
32250;SDS011;41295;48.518;9.206;2023-07-22T02:24:21;3.70;;;2.58;;
32250;SDS011;41295;48.518;9.206;2023-07-22T02:26:24;3.25;;;2.35;;
32250;SDS011;41295;48.518;9.206;2023-07-22T02:28:27;4.22;;;2.50;;
32250;SDS011;41295;48.518;9.206;2023-07-22T02:30:31;5.30;;;2.40;;
32250;SDS011;41295;48.518;9.206;2023-07-22T02:32:36;5.30;;;2.50;;
32250;SDS011;41295;48.518;9.206;2023-07-22T02:34:38;4.25;;;2.40;;
32250;SDS011;41295;48.518;9.206;2023-07-22T02:36:41;4.80;;;2.22;;
32250;SDS011;41295;48.518;9.206;2023-07-22T02:38:44;4.28;;;2.28;;
32250;SDS011;41295;48.518;9.206;2023-07-22T02:40:47;3.28;;;2.47;;
32250;SDS011;41295;48.518;9.206;2023-07-22T02:42:49;4.85;;;2.60;;
32250;SDS011;41295;48.518;9.206;2023-07-22T02:44:52;3.55;;;2.20;;
32250;SDS011;41295;48.518;9.206;2023-07-22T02:46:59;4.75;;;2.47;;
32250;SDS011;41295;48.518;9.206;2023-07-22T02:49:01;2.88;;;2.20;;
32250;SDS011;41295;48.518;9.206;2023-07-22T02:51:04;5.05;;;2.45;;
32250;SDS011;41295;48.518;9.206;2023-07-22T02:53:08;5.72;;;2.63;;
32250;SDS011;41295;48.518;9.206;2023-07-22T02:55:13;4.97;;;2.47;;
32250;SDS011;41295;48.518;9.206;2023-07-22T02:57:17;3.45;;;2.60;;
32250;SDS011;41295;48.518;9.206;2023-07-22T02:59:20;4.28;;;2.70;;
32250;SDS011;41295;48.518;9.206;2023-07-22T03:01:22;4.57;;;2.65;;
32250;SDS011;41295;48.518;9.206;2023-07-22T03:03:27;3.63;;;2.55;;
32250;SDS011;41295;48.518;9.206;2023-07-22T03:05:30;6.15;;;2.35;;
32250;SDS011;41295;48.518;9.206;2023-07-22T03:07:33;4.63;;;2.60;;
32250;SDS011;41295;48.518;9.206;2023-07-22T03:09:36;7.63;;;2.97;;
32250;SDS011;41295;48.518;9.206;2023-07-22T03:11:39;4.70;;;2.85;;
32250;SDS011;41295;48.518;9.206;2023-07-22T03:13:41;5.63;;;2.97;;
32250;SDS011;41295;48.518;9.206;2023-07-22T03:15:44;5.53;;;2.75;;
32250;SDS011;41295;48.518;9.206;2023-07-22T03:17:47;6.70;;;2.95;;
32250;SDS011;41295;48.518;9.206;2023-07-22T03:19:51;4.63;;;2.80;;
32250;SDS011;41295;48.518;9.206;2023-07-22T03:21:53;4.38;;;2.67;;
32250;SDS011;41295;48.518;9.206;2023-07-22T03:23:56;5.40;;;3.00;;
32250;SDS011;41295;48.518;9.206;2023-07-22T03:25:58;8.77;;;2.72;;
32250;SDS011;41295;48.518;9.206;2023-07-22T03:28:02;5.38;;;2.85;;
32250;SDS011;41295;48.518;9.206;2023-07-22T03:30:07;4.80;;;2.90;;
32250;SDS011;41295;48.518;9.206;2023-07-22T03:32:12;3.50;;;2.50;;
32250;SDS011;41295;48.518;9.206;2023-07-22T03:34:14;5.32;;;3.00;;
32250;SDS011;41295;48.518;9.206;2023-07-22T03:36:18;4.68;;;2.78;;
32250;SDS011;41295;48.518;9.206;2023-07-22T03:38:21;5.22;;;2.70;;
32250;SDS011;41295;48.518;9.206;2023-07-22T03:40:24;5.63;;;2.65;;
32250;SDS011;41295;48.518;9.206;2023-07-22T03:42:31;6.10;;;2.88;;
32250;SDS011;41295;48.518;9.206;2023-07-22T03:44:33;4.22;;;2.83;;
32250;SDS011;41295;48.518;9.206;2023-07-22T03:46:37;4.72;;;2.95;;
32250;SDS011;41295;48.518;9.206;2023-07-22T03:48:39;8.00;;;2.92;;
32250;SDS011;41295;48.518;9.206;2023-07-22T03:50:42;5.53;;;3.00;;
32250;SDS011;41295;48.518;9.206;2023-07-22T03:52:46;6.32;;;3.15;;
32250;SDS011;41295;48.518;9.206;2023-07-22T03:54:49;5.60;;;3.10;;
32250;SDS011;41295;48.518;9.206;2023-07-22T03:56:51;5.93;;;2.80;;
32250;SDS011;41295;48.518;9.206;2023-07-22T03:58:54;4.28;;;2.60;;
32250;SDS011;41295;48.518;9.206;2023-07-22T04:00:57;5.25;;;2.60;;
32250;SDS011;41295;48.518;9.206;2023-07-22T04:02:59;4.88;;;2.90;;
32250;SDS011;41295;48.518;9.206;2023-07-22T04:05:02;5.72;;;3.20;;
32250;SDS011;41295;48.518;9.206;2023-07-22T04:07:05;4.90;;;2.80;;
32250;SDS011;41295;48.518;9.206;2023-07-22T04:09:10;4.38;;;2.63;;
32250;SDS011;41295;48.518;9.206;2023-07-22T04:11:12;4.93;;;2.72;;
32250;SDS011;41295;48.518;9.206;2023-07-22T04:13:16;6.90;;;2.58;;
32250;SDS011;41295;48.518;9.206;2023-07-22T04:17:20;6.45;;;2.63;;
32250;SDS011;41295;48.518;9.206;2023-07-22T04:19:23;4.88;;;3.08;;
32250;SDS011;41295;48.518;9.206;2023-07-22T04:21:25;4.95;;;2.50;;
32250;SDS011;41295;48.518;9.206;2023-07-22T04:23:28;4.65;;;2.60;;
32250;SDS011;41295;48.518;9.206;2023-07-22T04:25:38;5.72;;;2.88;;
32250;SDS011;41295;48.518;9.206;2023-07-22T04:27:41;5.13;;;2.80;;
32250;SDS011;41295;48.518;9.206;2023-07-22T04:29:44;4.90;;;2.80;;
32250;SDS011;41295;48.518;9.206;2023-07-22T04:31:46;4.50;;;3.00;;
32250;SDS011;41295;48.518;9.206;2023-07-22T04:33:49;7.63;;;2.80;;
32250;SDS011;41295;48.518;9.206;2023-07-22T04:35:53;4.63;;;2.85;;
32250;SDS011;41295;48.518;9.206;2023-07-22T04:37:56;6.55;;;2.97;;
32250;SDS011;41295;48.518;9.206;2023-07-22T04:39:58;6.32;;;3.20;;
32250;SDS011;41295;48.518;9.206;2023-07-22T04:42:02;7.75;;;3.30;;
32250;SDS011;41295;48.518;9.206;2023-07-22T04:44:05;7.72;;;3.22;;
32250;SDS011;41295;48.518;9.206;2023-07-22T04:46:09;6.00;;;2.78;;
32250;SDS011;41295;48.518;9.206;2023-07-22T04:48:11;4.25;;;2.53;;
32250;SDS011;41295;48.518;9.206;2023-07-22T04:50:14;4.03;;;2.67;;
32250;SDS011;41295;48.518;9.206;2023-07-22T04:52:17;4.90;;;3.05;;
32250;SDS011;41295;48.518;9.206;2023-07-22T04:54:19;5.32;;;2.92;;
32250;SDS011;41295;48.518;9.206;2023-07-22T04:56:22;5.00;;;2.78;;
32250;SDS011;41295;48.518;9.206;2023-07-22T05:00:27;5.60;;;2.80;;
32250;SDS011;41295;48.518;9.206;2023-07-22T05:02:30;5.38;;;2.53;;
32250;SDS011;41295;48.518;9.206;2023-07-22T05:04:33;4.43;;;2.78;;
32250;SDS011;41295;48.518;9.206;2023-07-22T05:06:36;7.13;;;2.53;;
32250;SDS011;41295;48.518;9.206;2023-07-22T05:10:40;4.40;;;2.80;;
32250;SDS011;41295;48.518;9.206;2023-07-22T05:12:43;6.38;;;3.10;;
32250;SDS011;41295;48.518;9.206;2023-07-22T05:14:47;6.88;;;3.20;;
32250;SDS011;41295;48.518;9.206;2023-07-22T05:16:49;5.97;;;2.90;;
32250;SDS011;41295;48.518;9.206;2023-07-22T05:18:52;6.28;;;2.80;;
32250;SDS011;41295;48.518;9.206;2023-07-22T05:22:57;4.43;;;2.55;;
32250;SDS011;41295;48.518;9.206;2023-07-22T05:25:00;3.83;;;2.60;;
32250;SDS011;41295;48.518;9.206;2023-07-22T05:27:03;6.80;;;3.47;;
32250;SDS011;41295;48.518;9.206;2023-07-22T05:29:10;6.35;;;3.00;;
32250;SDS011;41295;48.518;9.206;2023-07-22T05:31:14;5.40;;;2.80;;
32250;SDS011;41295;48.518;9.206;2023-07-22T05:33:18;6.00;;;2.80;;
32250;SDS011;41295;48.518;9.206;2023-07-22T05:35:21;4.70;;;2.80;;
32250;SDS011;41295;48.518;9.206;2023-07-22T05:37:24;3.90;;;2.58;;
32250;SDS011;41295;48.518;9.206;2023-07-22T05:39:27;5.85;;;2.80;;
32250;SDS011;41295;48.518;9.206;2023-07-22T05:41:29;4.45;;;2.95;;
32250;SDS011;41295;48.518;9.206;2023-07-22T05:43:32;4.63;;;2.80;;
32250;SDS011;41295;48.518;9.206;2023-07-22T05:45:35;5.65;;;2.58;;
32250;SDS011;41295;48.518;9.206;2023-07-22T05:47:39;4.18;;;2.40;;
32250;SDS011;41295;48.518;9.206;2023-07-22T05:49:42;6.95;;;2.95;;
32250;SDS011;41295;48.518;9.206;2023-07-22T05:51:44;5.30;;;2.47;;
32250;SDS011;41295;48.518;9.206;2023-07-22T05:53:47;5.15;;;2.90;;
32250;SDS011;41295;48.518;9.206;2023-07-22T05:55:50;4.32;;;2.50;;
32250;SDS011;41295;48.518;9.206;2023-07-22T05:57:52;5.00;;;2.90;;
32250;SDS011;41295;48.518;9.206;2023-07-22T06:02:08;6.68;;;2.65;;
32250;SDS011;41295;48.518;9.206;2023-07-22T06:04:13;5.55;;;2.78;;
32250;SDS011;41295;48.518;9.206;2023-07-22T06:06:15;5.05;;;2.80;;
32250;SDS011;41295;48.518;9.206;2023-07-22T06:10:20;5.93;;;2.83;;
32250;SDS011;41295;48.518;9.206;2023-07-22T06:12:22;4.25;;;2.60;;
32250;SDS011;41295;48.518;9.206;2023-07-22T06:16:26;10.43;;;3.10;;
32250;SDS011;41295;48.518;9.206;2023-07-22T06:18:29;5.38;;;2.70;;
32250;SDS011;41295;48.518;9.206;2023-07-22T06:20:34;6.97;;;2.90;;
32250;SDS011;41295;48.518;9.206;2023-07-22T06:22:36;6.40;;;2.88;;
32250;SDS011;41295;48.518;9.206;2023-07-22T06:24:39;4.40;;;2.20;;
32250;SDS011;41295;48.518;9.206;2023-07-22T06:26:42;3.95;;;2.58;;
32250;SDS011;41295;48.518;9.206;2023-07-22T06:28:45;9.18;;;2.70;;
32250;SDS011;41295;48.518;9.206;2023-07-22T06:30:46;3.83;;;2.67;;
32250;SDS011;41295;48.518;9.206;2023-07-22T06:32:49;4.13;;;2.50;;
32250;SDS011;41295;48.518;9.206;2023-07-22T06:36:55;3.83;;;2.65;;
32250;SDS011;41295;48.518;9.206;2023-07-22T06:38:58;4.13;;;2.40;;
32250;SDS011;41295;48.518;9.206;2023-07-22T06:41:00;3.78;;;2.08;;
32250;SDS011;41295;48.518;9.206;2023-07-22T06:45:05;4.47;;;2.13;;
32250;SDS011;41295;48.518;9.206;2023-07-22T06:47:08;6.95;;;2.25;;
32250;SDS011;41295;48.518;9.206;2023-07-22T06:49:11;4.10;;;2.33;;
32250;SDS011;41295;48.518;9.206;2023-07-22T06:51:13;3.97;;;2.20;;
32250;SDS011;41295;48.518;9.206;2023-07-22T06:53:17;3.88;;;2.30;;
32250;SDS011;41295;48.518;9.206;2023-07-22T06:55:19;3.67;;;2.40;;
32250;SDS011;41295;48.518;9.206;2023-07-22T06:57:22;4.80;;;2.38;;
32250;SDS011;41295;48.518;9.206;2023-07-22T06:59:27;4.18;;;2.20;;
32250;SDS011;41295;48.518;9.206;2023-07-22T07:03:31;3.53;;;2.00;;
32250;SDS011;41295;48.518;9.206;2023-07-22T07:05:34;4.65;;;2.20;;
32250;SDS011;41295;48.518;9.206;2023-07-22T07:07:37;3.88;;;2.30;;
32250;SDS011;41295;48.518;9.206;2023-07-22T07:09:41;6.13;;;2.10;;
32250;SDS011;41295;48.518;9.206;2023-07-22T07:11:44;3.67;;;2.00;;
32250;SDS011;41295;48.518;9.206;2023-07-22T07:13:47;2.70;;;2.20;;
32250;SDS011;41295;48.518;9.206;2023-07-22T07:15:49;4.05;;;2.22;;
32250;SDS011;41295;48.518;9.206;2023-07-22T07:17:52;2.65;;;1.95;;
32250;SDS011;41295;48.518;9.206;2023-07-22T07:19:55;5.05;;;2.45;;
32250;SDS011;41295;48.518;9.206;2023-07-22T07:21:58;4.82;;;2.47;;
32250;SDS011;41295;48.518;9.206;2023-07-22T07:24:00;3.30;;;2.00;;
32250;SDS011;41295;48.518;9.206;2023-07-22T07:26:04;3.53;;;2.17;;
32250;SDS011;41295;48.518;9.206;2023-07-22T07:28:06;4.25;;;2.47;;
32250;SDS011;41295;48.518;9.206;2023-07-22T07:30:09;3.63;;;2.35;;
32250;SDS011;41295;48.518;9.206;2023-07-22T07:32:13;4.88;;;1.83;;
32250;SDS011;41295;48.518;9.206;2023-07-22T07:34:15;3.60;;;2.38;;
32250;SDS011;41295;48.518;9.206;2023-07-22T07:36:18;3.40;;;2.05;;
32250;SDS011;41295;48.518;9.206;2023-07-22T07:38:21;3.65;;;2.00;;
32250;SDS011;41295;48.518;9.206;2023-07-22T07:40:24;4.25;;;2.10;;
32250;SDS011;41295;48.518;9.206;2023-07-22T07:42:29;3.22;;;2.25;;
32250;SDS011;41295;48.518;9.206;2023-07-22T07:44:31;3.97;;;2.42;;
32250;SDS011;41295;48.518;9.206;2023-07-22T07:46:34;5.07;;;2.08;;
32250;SDS011;41295;48.518;9.206;2023-07-22T07:48:37;3.30;;;2.40;;
32250;SDS011;41295;48.518;9.206;2023-07-22T07:50:38;4.57;;;2.60;;
32250;SDS011;41295;48.518;9.206;2023-07-22T07:52:41;5.28;;;2.03;;
32250;SDS011;41295;48.518;9.206;2023-07-22T07:54:44;3.30;;;1.98;;
32250;SDS011;41295;48.518;9.206;2023-07-22T07:56:46;3.95;;;2.00;;
32250;SDS011;41295;48.518;9.206;2023-07-22T07:58:52;5.07;;;1.98;;
32250;SDS011;41295;48.518;9.206;2023-07-22T08:00:55;3.05;;;2.20;;
32250;SDS011;41295;48.518;9.206;2023-07-22T08:02:58;3.10;;;2.10;;
32250;SDS011;41295;48.518;9.206;2023-07-22T08:05:01;6.70;;;2.08;;
32250;SDS011;41295;48.518;9.206;2023-07-22T08:07:05;3.92;;;2.17;;
32250;SDS011;41295;48.518;9.206;2023-07-22T08:09:09;3.03;;;1.80;;
32250;SDS011;41295;48.518;9.206;2023-07-22T08:11:12;3.72;;;2.05;;
32250;SDS011;41295;48.518;9.206;2023-07-22T08:13:16;5.15;;;1.88;;
32250;SDS011;41295;48.518;9.206;2023-07-22T08:15:19;3.35;;;1.95;;
32250;SDS011;41295;48.518;9.206;2023-07-22T08:17:22;5.88;;;2.60;;
32250;SDS011;41295;48.518;9.206;2023-07-22T08:19:24;3.25;;;2.13;;
32250;SDS011;41295;48.518;9.206;2023-07-22T08:21:27;5.82;;;2.10;;
32250;SDS011;41295;48.518;9.206;2023-07-22T08:23:30;4.10;;;1.90;;
32250;SDS011;41295;48.518;9.206;2023-07-22T08:25:33;3.35;;;1.75;;
32250;SDS011;41295;48.518;9.206;2023-07-22T08:27:35;3.88;;;2.03;;
32250;SDS011;41295;48.518;9.206;2023-07-22T08:29:38;3.95;;;1.50;;
32250;SDS011;41295;48.518;9.206;2023-07-22T08:31:42;5.55;;;1.50;;
32250;SDS011;41295;48.518;9.206;2023-07-22T08:33:45;3.75;;;2.00;;
32250;SDS011;41295;48.518;9.206;2023-07-22T08:35:47;4.28;;;2.10;;
32250;SDS011;41295;48.518;9.206;2023-07-22T08:37:51;2.35;;;1.67;;
32250;SDS011;41295;48.518;9.206;2023-07-22T08:39:55;2.78;;;1.73;;
32250;SDS011;41295;48.518;9.206;2023-07-22T08:41:57;4.97;;;1.77;;
32250;SDS011;41295;48.518;9.206;2023-07-22T08:44:05;4.18;;;1.60;;
32250;SDS011;41295;48.518;9.206;2023-07-22T08:46:12;4.20;;;2.40;;
32250;SDS011;41295;48.518;9.206;2023-07-22T08:48:18;2.60;;;1.55;;
32250;SDS011;41295;48.518;9.206;2023-07-22T08:50:25;2.45;;;1.80;;
32250;SDS011;41295;48.518;9.206;2023-07-22T08:52:30;3.50;;;1.73;;
32250;SDS011;41295;48.518;9.206;2023-07-22T08:54:33;6.63;;;1.67;;
32250;SDS011;41295;48.518;9.206;2023-07-22T08:56:37;2.70;;;1.90;;
32250;SDS011;41295;48.518;9.206;2023-07-22T08:58:41;2.90;;;1.73;;
32250;SDS011;41295;48.518;9.206;2023-07-22T09:00:44;2.28;;;1.70;;
32250;SDS011;41295;48.518;9.206;2023-07-22T09:02:47;5.57;;;2.00;;
32250;SDS011;41295;48.518;9.206;2023-07-22T09:04:52;4.20;;;1.75;;
32250;SDS011;41295;48.518;9.206;2023-07-22T09:06:55;2.20;;;1.67;;
32250;SDS011;41295;48.518;9.206;2023-07-22T09:08:58;5.78;;;1.90;;
32250;SDS011;41295;48.518;9.206;2023-07-22T09:11:02;34.30;;;3.92;;
32250;SDS011;41295;48.518;9.206;2023-07-22T09:13:04;15.48;;;2.80;;
32250;SDS011;41295;48.518;9.206;2023-07-22T09:15:08;7.07;;;2.10;;
32250;SDS011;41295;48.518;9.206;2023-07-22T09:17:12;3.50;;;1.88;;
32250;SDS011;41295;48.518;9.206;2023-07-22T09:19:15;4.07;;;2.10;;
32250;SDS011;41295;48.518;9.206;2023-07-22T09:21:19;2.72;;;1.70;;
32250;SDS011;41295;48.518;9.206;2023-07-22T09:23:31;6.80;;;2.10;;
32250;SDS011;41295;48.518;9.206;2023-07-22T09:25:34;2.65;;;1.65;;
32250;SDS011;41295;48.518;9.206;2023-07-22T09:27:37;4.20;;;1.80;;
32250;SDS011;41295;48.518;9.206;2023-07-22T09:29:40;3.08;;;1.85;;
32250;SDS011;41295;48.518;9.206;2023-07-22T09:31:48;3.45;;;1.70;;
32250;SDS011;41295;48.518;9.206;2023-07-22T09:33:52;2.05;;;1.60;;
32250;SDS011;41295;48.518;9.206;2023-07-22T09:35:56;2.00;;;1.50;;
32250;SDS011;41295;48.518;9.206;2023-07-22T09:38:00;2.47;;;1.60;;
32250;SDS011;41295;48.518;9.206;2023-07-22T09:40:04;2.67;;;1.80;;
32250;SDS011;41295;48.518;9.206;2023-07-22T09:42:23;2.50;;;1.52;;
32250;SDS011;41295;48.518;9.206;2023-07-22T09:44:29;2.80;;;1.48;;
32250;SDS011;41295;48.518;9.206;2023-07-22T09:46:32;2.53;;;1.45;;
32250;SDS011;41295;48.518;9.206;2023-07-22T09:48:40;4.57;;;1.75;;
32250;SDS011;41295;48.518;9.206;2023-07-22T09:50:43;2.05;;;1.85;;
32250;SDS011;41295;48.518;9.206;2023-07-22T09:52:46;2.65;;;1.50;;
32250;SDS011;41295;48.518;9.206;2023-07-22T09:54:50;2.35;;;1.50;;
32250;SDS011;41295;48.518;9.206;2023-07-22T09:56:53;2.38;;;1.50;;
32250;SDS011;41295;48.518;9.206;2023-07-22T09:58:56;2.70;;;1.98;;
32250;SDS011;41295;48.518;9.206;2023-07-22T10:01:01;2.67;;;1.42;;
32250;SDS011;41295;48.518;9.206;2023-07-22T10:03:07;2.35;;;1.60;;
32250;SDS011;41295;48.518;9.206;2023-07-22T10:05:16;19.02;;;2.60;;
32250;SDS011;41295;48.518;9.206;2023-07-22T10:07:21;2.05;;;1.30;;
32250;SDS011;41295;48.518;9.206;2023-07-22T10:09:24;2.08;;;1.38;;
32250;SDS011;41295;48.518;9.206;2023-07-22T10:11:34;5.60;;;1.30;;
32250;SDS011;41295;48.518;9.206;2023-07-22T10:13:40;3.42;;;1.60;;
32250;SDS011;41295;48.518;9.206;2023-07-22T10:15:43;2.95;;;1.67;;
32250;SDS011;41295;48.518;9.206;2023-07-22T10:17:47;3.65;;;1.90;;
32250;SDS011;41295;48.518;9.206;2023-07-22T10:19:51;3.13;;;1.80;;
32250;SDS011;41295;48.518;9.206;2023-07-22T10:21:54;4.57;;;1.45;;
32250;SDS011;41295;48.518;9.206;2023-07-22T10:23:57;3.45;;;1.67;;
32250;SDS011;41295;48.518;9.206;2023-07-22T10:26:05;5.45;;;1.67;;
32250;SDS011;41295;48.518;9.206;2023-07-22T10:28:09;3.03;;;1.90;;
32250;SDS011;41295;48.518;9.206;2023-07-22T10:30:15;1.95;;;1.63;;
32250;SDS011;41295;48.518;9.206;2023-07-22T10:32:19;3.25;;;1.90;;
32250;SDS011;41295;48.518;9.206;2023-07-22T10:34:23;1.98;;;1.52;;
32250;SDS011;41295;48.518;9.206;2023-07-22T10:36:28;2.40;;;1.92;;
32250;SDS011;41295;48.518;9.206;2023-07-22T10:38:32;5.07;;;2.20;;
32250;SDS011;41295;48.518;9.206;2023-07-22T10:40:44;3.53;;;1.92;;
32250;SDS011;41295;48.518;9.206;2023-07-22T10:42:51;2.17;;;1.50;;
32250;SDS011;41295;48.518;9.206;2023-07-22T10:44:56;3.38;;;2.03;;
32250;SDS011;41295;48.518;9.206;2023-07-22T10:47:02;4.28;;;1.73;;
32250;SDS011;41295;48.518;9.206;2023-07-22T10:49:12;4.65;;;1.60;;
32250;SDS011;41295;48.518;9.206;2023-07-22T10:51:17;2.60;;;1.70;;
32250;SDS011;41295;48.518;9.206;2023-07-22T10:53:21;3.28;;;1.65;;
32250;SDS011;41295;48.518;9.206;2023-07-22T10:55:30;4.57;;;1.80;;
32250;SDS011;41295;48.518;9.206;2023-07-22T10:57:33;8.63;;;1.80;;
32250;SDS011;41295;48.518;9.206;2023-07-22T10:59:49;3.45;;;1.75;;
32250;SDS011;41295;48.518;9.206;2023-07-22T11:01:54;3.50;;;1.60;;
32250;SDS011;41295;48.518;9.206;2023-07-22T11:04:05;2.42;;;1.83;;
32250;SDS011;41295;48.518;9.206;2023-07-22T11:06:14;2.00;;;1.70;;
32250;SDS011;41295;48.518;9.206;2023-07-22T11:08:17;4.07;;;1.70;;
32250;SDS011;41295;48.518;9.206;2023-07-22T11:10:37;2.05;;;1.75;;
32250;SDS011;41295;48.518;9.206;2023-07-22T11:12:53;4.20;;;1.80;;
32250;SDS011;41295;48.518;9.206;2023-07-22T11:15:02;5.28;;;1.90;;
32250;SDS011;41295;48.518;9.206;2023-07-22T11:17:08;4.30;;;1.95;;
32250;SDS011;41295;48.518;9.206;2023-07-22T11:19:12;3.05;;;1.77;;
32250;SDS011;41295;48.518;9.206;2023-07-22T11:21:14;3.85;;;2.05;;
32250;SDS011;41295;48.518;9.206;2023-07-22T11:23:17;2.20;;;1.70;;
32250;SDS011;41295;48.518;9.206;2023-07-22T11:25:20;5.00;;;2.10;;
32250;SDS011;41295;48.518;9.206;2023-07-22T11:27:23;3.75;;;1.98;;
32250;SDS011;41295;48.518;9.206;2023-07-22T11:29:26;4.43;;;2.35;;
32250;SDS011;41295;48.518;9.206;2023-07-22T11:31:31;4.72;;;2.17;;
32250;SDS011;41295;48.518;9.206;2023-07-22T11:33:38;8.13;;;2.17;;
32250;SDS011;41295;48.518;9.206;2023-07-22T11:35:42;5.05;;;1.88;;
32250;SDS011;41295;48.518;9.206;2023-07-22T11:37:45;3.15;;;2.00;;
32250;SDS011;41295;48.518;9.206;2023-07-22T11:39:47;3.17;;;1.80;;
32250;SDS011;41295;48.518;9.206;2023-07-22T11:41:50;3.25;;;1.92;;
32250;SDS011;41295;48.518;9.206;2023-07-22T11:43:52;3.20;;;2.08;;
32250;SDS011;41295;48.518;9.206;2023-07-22T11:45:55;3.28;;;2.10;;
32250;SDS011;41295;48.518;9.206;2023-07-22T11:47:58;3.55;;;2.33;;
32250;SDS011;41295;48.518;9.206;2023-07-22T11:50:02;5.05;;;2.35;;
32250;SDS011;41295;48.518;9.206;2023-07-22T11:52:06;7.40;;;2.60;;
32250;SDS011;41295;48.518;9.206;2023-07-22T11:54:10;3.72;;;2.25;;
32250;SDS011;41295;48.518;9.206;2023-07-22T11:56:11;3.05;;;2.10;;
32250;SDS011;41295;48.518;9.206;2023-07-22T11:58:14;3.17;;;2.22;;
32250;SDS011;41295;48.518;9.206;2023-07-22T12:02:28;3.70;;;2.20;;
32250;SDS011;41295;48.518;9.206;2023-07-22T12:04:33;5.22;;;2.30;;
32250;SDS011;41295;48.518;9.206;2023-07-22T12:06:37;4.10;;;2.28;;
32250;SDS011;41295;48.518;9.206;2023-07-22T12:08:44;4.25;;;2.20;;
32250;SDS011;41295;48.518;9.206;2023-07-22T12:10:55;3.13;;;1.92;;
32250;SDS011;41295;48.518;9.206;2023-07-22T12:13:00;7.93;;;2.70;;
32250;SDS011;41295;48.518;9.206;2023-07-22T12:15:04;5.57;;;2.08;;
32250;SDS011;41295;48.518;9.206;2023-07-22T12:17:14;3.90;;;2.60;;
32250;SDS011;41295;48.518;9.206;2023-07-22T12:19:17;3.17;;;2.13;;
32250;SDS011;41295;48.518;9.206;2023-07-22T12:21:19;4.10;;;2.10;;
32250;SDS011;41295;48.518;9.206;2023-07-22T12:23:23;5.03;;;2.38;;
32250;SDS011;41295;48.518;9.206;2023-07-22T12:25:25;15.20;;;2.60;;
32250;SDS011;41295;48.518;9.206;2023-07-22T12:27:28;4.85;;;2.65;;
32250;SDS011;41295;48.518;9.206;2023-07-22T12:29:31;3.67;;;2.20;;
32250;SDS011;41295;48.518;9.206;2023-07-22T12:31:35;6.93;;;2.08;;
32250;SDS011;41295;48.518;9.206;2023-07-22T12:33:37;3.13;;;1.65;;
32250;SDS011;41295;48.518;9.206;2023-07-22T12:35:40;4.63;;;2.30;;
32250;SDS011;41295;48.518;9.206;2023-07-22T12:37:43;3.60;;;2.38;;
32250;SDS011;41295;48.518;9.206;2023-07-22T12:39:47;2.60;;;2.00;;
32250;SDS011;41295;48.518;9.206;2023-07-22T12:41:49;4.68;;;2.53;;
32250;SDS011;41295;48.518;9.206;2023-07-22T12:43:52;4.45;;;2.10;;
32250;SDS011;41295;48.518;9.206;2023-07-22T12:45:55;3.80;;;2.70;;
32250;SDS011;41295;48.518;9.206;2023-07-22T12:47:57;6.75;;;2.33;;
32250;SDS011;41295;48.518;9.206;2023-07-22T12:49:59;5.30;;;2.28;;
32250;SDS011;41295;48.518;9.206;2023-07-22T12:52:02;4.47;;;2.33;;